Aeroporto :







RITROVATECI SU...

 
LOGIN :

Iscrizione | Disclaimer

   EN    FR    IT 

 









Sommario :    VFR   VFR Marginale   IFR   IFR Intensivo   IFR Molto Intensivo
Visibilità : 
Base nubi : 
>= 8 km
>= 3000ft
5 / 8 km
1000 / 3000 ft
1500m / 5 km
500 / 1000 ft
800 / 1500m
200 / 500 ft
< 800m
< 200 ft
Simboli :   Temporali  Nebbia  Neve Forte  Precipitazioni Forti  Vento > 20 kt






- Altitudine del aeroporto : 35 ft
- Codice IATA : YGR


CYGR - ëles-de-la-Madeleine

ULTIMO METAR :
  • 122300Z 19022G32KT 10SM -RA OVC083 12/10 A2954 RMK AC8 SLP006 DENSITY ALT 100FT

METARs OBSOLETI :
  • 122208Z 18018G28KT 10SM -RA FEW003 OVC070 12/11 A2955 RMK SF1AC7 SLP009 DENSITY ALT 200FT
  • 122200Z 18016G31KT 15SM FEW003 OVC090 12/11 A2956 RMK SF1AC7 PRESFR SLP011 DENSITY ALT 100FT
  • 122100Z 19018G30KT 7SM SCT003 SCT033 OVC120 11/10 A2957 RMK SF3SC1AC4 SLP016

TAF TAF CYGR
Valido dal 12 a 20 ore il 13 a 03 ore UTC


121938Z 1220/1303 19020G35KT P6SM SCT003 OVC030
TEMPO 1220/1222 4SM -SHRA BR BKN003 OVC030
FM122200 18020G35KT P6SM SCT020 OVC060
TEMPO 1222/1301 5SM -SHRA BR OVC020
FM130100 19020G35KT 6SM -RA BR SCT005 OVC010
TEMPO 1301/1303 2SM -RA BR OVC005 RMK NXT FCST WILL BE ISSUED AT 131145Z



MetMap, La meteo Aeronautica in un colpo d'occhio ! - Copyright ORBIFLY Dicembre 2007 - Disclaimer

ORBIFLY MET'MAP TEAM :

Programmazione e sviluppo : Alexandra Zaïnal
Concezione e sviluppo : Baudouin d'Aumeries
Co-Programmazione e sviluppo : Marc-Olivier Méhu
Supporto tecnico e logistico : Manuel Goepfert
Aiuto per la traduzione : Arnaldo La Scala

Contatto : metmap@orbifly.com




FONTI E CREDITI :

   NOAA